sensor_id;sensor_type;location;lat;lon;timestamp;pressure;altitude;pressure_sealevel;temperature;humidity
30421;BME280;17218;54.070;10.012;2023-04-08T00:02:06;102230.34;;;6.98;100.00
30421;BME280;17218;54.070;10.012;2023-04-08T00:04:33;102233.97;;;7.04;100.00
30421;BME280;17218;54.070;10.012;2023-04-08T00:06:59;102243.66;;;7.12;100.00
30421;BME280;17218;54.070;10.012;2023-04-08T00:09:26;102233.44;;;7.15;100.00
30421;BME280;17218;54.070;10.012;2023-04-08T00:11:53;102231.13;;;7.23;100.00
30421;BME280;17218;54.070;10.012;2023-04-08T00:14:21;102235.09;;;7.13;100.00
30421;BME280;17218;54.070;10.012;2023-04-08T00:16:47;102238.16;;;7.01;100.00
30421;BME280;17218;54.070;10.012;2023-04-08T00:19:14;102243.16;;;6.96;100.00
30421;BME280;17218;54.070;10.012;2023-04-08T00:21:40;102245.94;;;7.02;100.00
30421;BME280;17218;54.070;10.012;2023-04-08T00:24:07;102246.13;;;7.09;100.00
30421;BME280;17218;54.070;10.012;2023-04-08T00:26:34;102240.22;;;7.11;100.00
30421;BME280;17218;54.070;10.012;2023-04-08T00:29:03;102256.78;;;7.20;100.00
30421;BME280;17218;54.070;10.012;2023-04-08T00:31:29;102247.34;;;7.20;100.00
30421;BME280;17218;54.070;10.012;2023-04-08T00:33:56;102255.97;;;7.21;100.00
30421;BME280;17218;54.070;10.012;2023-04-08T00:36:23;102260.28;;;7.22;100.00
30421;BME280;17218;54.070;10.012;2023-04-08T00:38:51;102257.53;;;7.15;100.00
30421;BME280;17218;54.070;10.012;2023-04-08T00:41:18;102259.06;;;7.10;100.00
30421;BME280;17218;54.070;10.012;2023-04-08T00:43:44;102254.66;;;7.06;100.00
30421;BME280;17218;54.070;10.012;2023-04-08T00:46:12;102260.97;;;7.16;100.00
30421;BME280;17218;54.070;10.012;2023-04-08T00:48:39;102247.94;;;7.11;100.00
30421;BME280;17218;54.070;10.012;2023-04-08T00:51:06;102249.50;;;7.06;100.00
30421;BME280;17218;54.070;10.012;2023-04-08T00:53:33;102250.34;;;7.07;100.00
30421;BME280;17218;54.070;10.012;2023-04-08T00:55:59;102249.53;;;7.08;100.00
30421;BME280;17218;54.070;10.012;2023-04-08T00:58:27;102253.22;;;7.16;100.00
30421;BME280;17218;54.070;10.012;2023-04-08T01:00:59;102245.66;;;7.21;100.00
30421;BME280;17218;54.070;10.012;2023-04-08T01:03:34;102242.31;;;7.25;100.00
30421;BME280;17218;54.070;10.012;2023-04-08T01:06:11;102242.31;;;7.25;100.00
30421;BME280;17218;54.070;10.012;2023-04-08T01:08:40;102248.28;;;7.22;100.00
30421;BME280;17218;54.070;10.012;2023-04-08T01:11:10;102237.53;;;7.08;100.00
30421;BME280;17218;54.070;10.012;2023-04-08T01:13:40;102251.31;;;7.10;100.00
30421;BME280;17218;54.070;10.012;2023-04-08T01:16:08;102246.28;;;7.13;100.00
30421;BME280;17218;54.070;10.012;2023-04-08T01:18:37;102251.44;;;7.13;100.00
30421;BME280;17218;54.070;10.012;2023-04-08T01:21:05;102240.97;;;7.09;100.00
30421;BME280;17218;54.070;10.012;2023-04-08T01:23:38;102242.88;;;7.14;100.00
30421;BME280;17218;54.070;10.012;2023-04-08T01:26:09;102240.22;;;7.11;100.00
30421;BME280;17218;54.070;10.012;2023-04-08T01:28:36;102245.50;;;7.16;100.00
30421;BME280;17218;54.070;10.012;2023-04-08T01:31:05;102254.09;;;7.16;100.00
30421;BME280;17218;54.070;10.012;2023-04-08T01:33:32;102247.31;;;7.19;100.00
30421;BME280;17218;54.070;10.012;2023-04-08T01:36:00;102256.81;;;7.21;100.00
30421;BME280;17218;54.070;10.012;2023-04-08T01:38:30;102247.34;;;7.20;100.00
30421;BME280;17218;54.070;10.012;2023-04-08T01:40:58;102255.81;;;7.16;100.00
30421;BME280;17218;54.070;10.012;2023-04-08T01:43:27;102254.06;;;7.15;100.00
30421;BME280;17218;54.070;10.012;2023-04-08T01:45:57;102258.25;;;7.11;100.00
30421;BME280;17218;54.070;10.012;2023-04-08T01:48:24;102252.72;;;6.99;100.00
30421;BME280;17218;54.070;10.012;2023-04-08T01:50:51;102258.50;;;6.91;100.00
30421;BME280;17218;54.070;10.012;2023-04-08T01:53:18;102242.41;;;6.99;100.00
30421;BME280;17218;54.070;10.012;2023-04-08T01:55:46;102245.19;;;7.07;100.00
30421;BME280;17218;54.070;10.012;2023-04-08T01:58:17;102240.81;;;7.02;100.00
30421;BME280;17218;54.070;10.012;2023-04-08T02:00:47;102243.38;;;7.02;100.00
30421;BME280;17218;54.070;10.012;2023-04-08T02:03:16;102246.84;;;7.04;100.00
30421;BME280;17218;54.070;10.012;2023-04-08T02:05:43;102246.13;;;7.09;100.00
30421;BME280;17218;54.070;10.012;2023-04-08T02:08:10;102240.97;;;7.09;100.00
30421;BME280;17218;54.070;10.012;2023-04-08T02:10:37;102237.59;;;7.10;100.00
30421;BME280;17218;54.070;10.012;2023-04-08T02:13:04;102243.75;;;7.15;100.00
30421;BME280;17218;54.070;10.012;2023-04-08T02:15:33;102236.53;;;7.04;100.00
30421;BME280;17218;54.070;10.012;2023-04-08T02:18:08;102239.97;;;7.03;100.00
30421;BME280;17218;54.070;10.012;2023-04-08T02:20:37;102240.84;;;7.04;100.00
30421;BME280;17218;54.070;10.012;2023-04-08T02:23:11;102240.84;;;7.04;100.00
30421;BME280;17218;54.070;10.012;2023-04-08T02:25:43;102238.28;;;7.04;100.00
30421;BME280;17218;54.070;10.012;2023-04-08T02:28:10;102236.84;;;6.86;100.00
30421;BME280;17218;54.070;10.012;2023-04-08T02:30:41;102238.50;;;6.84;100.00
30421;BME280;17218;54.070;10.012;2023-04-08T02:33:10;102230.47;;;6.75;100.00
30421;BME280;17218;54.070;10.012;2023-04-08T02:35:39;102233.91;;;6.75;100.00
30421;BME280;17218;54.070;10.012;2023-04-08T02:38:07;102246.25;;;6.84;100.00
30421;BME280;17218;54.070;10.012;2023-04-08T02:40:34;102237.75;;;6.88;100.00
30421;BME280;17218;54.070;10.012;2023-04-08T02:43:01;102246.13;;;6.81;100.00
30421;BME280;17218;54.070;10.012;2023-04-08T02:45:30;102252.59;;;6.70;100.00
30421;BME280;17218;54.070;10.012;2023-04-08T02:47:58;102252.72;;;6.47;100.00
30421;BME280;17218;54.070;10.012;2023-04-08T02:50:26;102252.88;;;6.51;100.00
30421;BME280;17218;54.070;10.012;2023-04-08T02:52:54;102261.63;;;6.56;100.00
30421;BME280;17218;54.070;10.012;2023-04-08T02:55:21;102257.53;;;6.62;100.00
30421;BME280;17218;54.070;10.012;2023-04-08T02:57:48;102261.88;;;6.64;100.00
30421;BME280;17218;54.070;10.012;2023-04-08T03:00:15;102259.44;;;6.67;100.00
30421;BME280;17218;54.070;10.012;2023-04-08T03:06:29;102258.47;;;6.64;100.00
30421;BME280;17218;54.070;10.012;2023-04-08T03:08:56;102253.31;;;6.64;100.00
30421;BME280;17218;54.070;10.012;2023-04-08T03:11:22;102249.97;;;6.68;100.00
30421;BME280;17218;54.070;10.012;2023-04-08T03:13:49;102253.09;;;6.58;100.00
30421;BME280;17218;54.070;10.012;2023-04-08T03:16:15;102255.03;;;6.65;100.00
30421;BME280;17218;54.070;10.012;2023-04-08T03:18:42;102256.53;;;6.58;100.00
30421;BME280;17218;54.070;10.012;2023-04-08T03:21:08;102261.09;;;6.41;100.00
30421;BME280;17218;54.070;10.012;2023-04-08T03:23:36;102257.81;;;6.45;100.00
30421;BME280;17218;54.070;10.012;2023-04-08T03:26:03;102251.28;;;6.55;100.00
30421;BME280;17218;54.070;10.012;2023-04-08T03:28:29;102253.22;;;6.62;100.00
30421;BME280;17218;54.070;10.012;2023-04-08T03:30:56;102262.50;;;6.57;100.00
30421;BME280;17218;54.070;10.012;2023-04-08T03:33:22;102261.53;;;6.53;100.00
30421;BME280;17218;54.070;10.012;2023-04-08T03:35:49;102268.88;;;6.42;100.00
30421;BME280;17218;54.070;10.012;2023-04-08T03:38:15;102268.47;;;6.30;100.00
30421;BME280;17218;54.070;10.012;2023-04-08T03:40:43;102273.00;;;6.37;100.00
30421;BME280;17218;54.070;10.012;2023-04-08T03:43:10;102265.56;;;6.45;100.00
30421;BME280;17218;54.070;10.012;2023-04-08T03:45:37;102265.78;;;6.53;100.00
30421;BME280;17218;54.070;10.012;2023-04-08T03:48:04;102269.06;;;6.47;100.00
30421;BME280;17218;54.070;10.012;2023-04-08T03:50:30;102274.06;;;6.44;100.00
30421;BME280;17218;54.070;10.012;2023-04-08T03:52:57;102267.25;;;6.44;100.00
30421;BME280;17218;54.070;10.012;2023-04-08T03:55:23;102266.78;;;6.56;100.00
30421;BME280;17218;54.070;10.012;2023-04-08T03:57:51;102269.66;;;6.66;100.00
30421;BME280;17218;54.070;10.012;2023-04-08T04:07:01;102285.97;;;6.40;100.00
30421;BME280;17218;54.070;10.012;2023-04-08T04:09:27;102286.28;;;6.25;100.00
30421;BME280;17218;54.070;10.012;2023-04-08T04:11:54;102293.13;;;6.23;100.00
30421;BME280;17218;54.070;10.012;2023-04-08T04:14:22;102286.91;;;6.18;100.00
30421;BME280;17218;54.070;10.012;2023-04-08T04:16:48;102295.44;;;6.17;100.00
30421;BME280;17218;54.070;10.012;2023-04-08T04:19:15;102301.31;;;6.13;100.00
30421;BME280;17218;54.070;10.012;2023-04-08T04:21:42;102298.06;;;5.95;100.00
30421;BME280;17218;54.070;10.012;2023-04-08T04:24:09;102304.00;;;5.93;100.00
30421;BME280;17218;54.070;10.012;2023-04-08T04:26:35;102304.63;;;5.87;100.00
30421;BME280;17218;54.070;10.012;2023-04-08T04:29:01;102299.84;;;5.96;100.00
30421;BME280;17218;54.070;10.012;2023-04-08T04:31:29;102304.09;;;5.96;100.00
30421;BME280;17218;54.070;10.012;2023-04-08T04:33:56;102313.06;;;6.06;100.00
30421;BME280;17218;54.070;10.012;2023-04-08T04:36:22;102311.59;;;6.13;100.00
30421;BME280;17218;54.070;10.012;2023-04-08T04:38:49;102309.81;;;6.10;100.00
30421;BME280;17218;54.070;10.012;2023-04-08T04:41:16;102316.94;;;6.17;100.00
30421;BME280;17218;54.070;10.012;2023-04-08T04:43:42;102316.75;;;6.13;100.00
30421;BME280;17218;54.070;10.012;2023-04-08T04:46:09;102322.78;;;6.13;100.00
30421;BME280;17218;54.070;10.012;2023-04-08T04:48:37;102324.41;;;6.11;100.00
30421;BME280;17218;54.070;10.012;2023-04-08T04:51:03;102326.72;;;6.05;100.00
30421;BME280;17218;54.070;10.012;2023-04-08T04:53:31;102338.66;;;6.03;100.00
30421;BME280;17218;54.070;10.012;2023-04-08T04:55:58;102333.28;;;5.96;100.00
30421;BME280;17218;54.070;10.012;2023-04-08T04:58:26;102331.81;;;6.03;100.00
30421;BME280;17218;54.070;10.012;2023-04-08T05:00:52;102336.38;;;6.11;100.00
30421;BME280;17218;54.070;10.012;2023-04-08T05:03:18;102334.00;;;6.15;100.00
30421;BME280;17218;54.070;10.012;2023-04-08T05:05:50;102334.44;;;6.05;100.00
30421;BME280;17218;54.070;10.012;2023-04-08T05:08:17;102338.66;;;6.03;100.00
30421;BME280;17218;54.070;10.012;2023-04-08T05:10:44;102336.78;;;5.99;100.00
30421;BME280;17218;54.070;10.012;2023-04-08T05:13:10;102341.75;;;5.94;100.00
30421;BME280;17218;54.070;10.012;2023-04-08T05:15:37;102344.84;;;5.85;100.00
30421;BME280;17218;54.070;10.012;2023-04-08T05:18:03;102349.00;;;5.81;100.00
30421;BME280;17218;54.070;10.012;2023-04-08T05:20:30;102355.31;;;5.90;100.00
30421;BME280;17218;54.070;10.012;2023-04-08T05:22:58;102350.28;;;5.93;100.00
30421;BME280;17218;54.070;10.012;2023-04-08T05:25:24;102359.94;;;5.99;100.00
30421;BME280;17218;54.070;10.012;2023-04-08T05:27:51;102358.16;;;5.97;100.00
30421;BME280;17218;54.070;10.012;2023-04-08T05:30:18;102360.75;;;5.97;100.00
30421;BME280;17218;54.070;10.012;2023-04-08T05:32:45;102369.34;;;5.98;100.00
30421;BME280;17218;54.070;10.012;2023-04-08T05:35:11;102374.94;;;6.09;100.00
30421;BME280;17218;54.070;10.012;2023-04-08T05:37:38;102372.41;;;6.11;100.00
30421;BME280;17218;54.070;10.012;2023-04-08T05:40:07;102374.34;;;6.16;100.00
30421;BME280;17218;54.070;10.012;2023-04-08T05:42:34;102378.44;;;6.11;100.00
30421;BME280;17218;54.070;10.012;2023-04-08T05:45:01;102374.72;;;6.04;100.00
30421;BME280;17218;54.070;10.012;2023-04-08T05:47:27;102380.03;;;6.07;100.00
30421;BME280;17218;54.070;10.012;2023-04-08T05:49:53;102375.13;;;5.92;100.00
30421;BME280;17218;54.070;10.012;2023-04-08T05:52:20;102381.47;;;6.01;100.00
30421;BME280;17218;54.070;10.012;2023-04-08T05:54:47;102377.31;;;6.04;100.00
30421;BME280;17218;54.070;10.012;2023-04-08T05:57:14;102374.72;;;6.04;100.00
30421;BME280;17218;54.070;10.012;2023-04-08T05:59:41;102374.69;;;6.03;100.00
30421;BME280;17218;54.070;10.012;2023-04-08T06:02:08;102380.47;;;5.97;100.00
30421;BME280;17218;54.070;10.012;2023-04-08T06:04:35;102377.94;;;5.99;100.00
30421;BME280;17218;54.070;10.012;2023-04-08T06:07:01;102372.81;;;5.99;100.00
30421;BME280;17218;54.070;10.012;2023-04-08T06:09:28;102380.63;;;6.02;100.00
30421;BME280;17218;54.070;10.012;2023-04-08T06:11:55;102389.38;;;6.05;100.00
30421;BME280;17218;54.070;10.012;2023-04-08T06:14:23;102392.06;;;6.08;100.00
30421;BME280;17218;54.070;10.012;2023-04-08T06:16:49;102387.31;;;6.19;100.00
30421;BME280;17218;54.070;10.012;2023-04-08T06:19:17;102384.97;;;6.26;100.00
30421;BME280;17218;54.070;10.012;2023-04-08T06:21:43;102404.78;;;6.27;100.00
30421;BME280;17218;54.070;10.012;2023-04-08T06:24:10;102391.91;;;6.27;100.00
30421;BME280;17218;54.070;10.012;2023-04-08T06:26:36;102404.03;;;6.31;100.00
30421;BME280;17218;54.070;10.012;2023-04-08T06:29:03;102407.78;;;6.39;100.00
30421;BME280;17218;54.070;10.012;2023-04-08T06:31:32;102396.00;;;6.46;100.00
30421;BME280;17218;54.070;10.012;2023-04-08T06:33:58;102401.50;;;6.32;100.00
30421;BME280;17218;54.070;10.012;2023-04-08T06:36:25;102409.38;;;6.36;100.00
30421;BME280;17218;54.070;10.012;2023-04-08T06:38:52;102406.75;;;6.34;100.00
30421;BME280;17218;54.070;10.012;2023-04-08T06:41:19;102415.31;;;6.35;100.00
30421;BME280;17218;54.070;10.012;2023-04-08T06:43:45;102412.66;;;6.31;100.00
30421;BME280;17218;54.070;10.012;2023-04-08T06:46:12;102409.31;;;6.34;100.00
30421;BME280;17218;54.070;10.012;2023-04-08T06:48:39;102418.84;;;6.37;100.00
30421;BME280;17218;54.070;10.012;2023-04-08T06:51:06;102418.72;;;6.34;100.00
30421;BME280;17218;54.070;10.012;2023-04-08T06:53:33;102420.13;;;6.25;100.00
30421;BME280;17218;54.070;10.012;2023-04-08T06:55:59;102422.84;;;6.28;100.00
30421;BME280;17218;54.070;10.012;2023-04-08T06:58:26;102426.47;;;6.34;100.00
30421;BME280;17218;54.070;10.012;2023-04-08T07:00:52;102425.63;;;6.35;100.00
30421;BME280;17218;54.070;10.012;2023-04-08T07:03:19;102426.84;;;6.44;100.00
30421;BME280;17218;54.070;10.012;2023-04-08T07:05:47;102430.72;;;6.56;100.00
30421;BME280;17218;54.070;10.012;2023-04-08T07:08:14;102432.84;;;6.68;100.00
30421;BME280;17218;54.070;10.012;2023-04-08T07:10:40;102432.19;;;6.74;100.00
30421;BME280;17218;54.070;10.012;2023-04-08T07:13:07;102427.97;;;6.76;100.00
30421;BME280;17218;54.070;10.012;2023-04-08T07:15:34;102431.63;;;6.83;100.00
30421;BME280;17218;54.070;10.012;2023-04-08T07:18:01;102436.13;;;6.88;100.00
30421;BME280;17218;54.070;10.012;2023-04-08T07:20:29;102442.44;;;6.97;100.00
30421;BME280;17218;54.070;10.012;2023-04-08T07:22:57;102443.91;;;7.14;100.00
30421;BME280;17218;54.070;10.012;2023-04-08T07:25:23;102444.59;;;7.10;100.00
30421;BME280;17218;54.070;10.012;2023-04-08T07:27:50;102440.44;;;7.14;100.00
30421;BME280;17218;54.070;10.012;2023-04-08T07:30:17;102454.13;;;7.11;100.00
30421;BME280;17218;54.070;10.012;2023-04-08T07:32:43;102444.13;;;7.21;100.00
30421;BME280;17218;54.070;10.012;2023-04-08T07:35:10;102449.38;;;7.24;100.00
30421;BME280;17218;54.070;10.012;2023-04-08T07:37:37;102448.84;;;7.34;100.00
30421;BME280;17218;54.070;10.012;2023-04-08T07:40:06;102448.53;;;7.51;100.00
30421;BME280;17218;54.070;10.012;2023-04-08T07:42:33;102449.44;;;7.51;100.00
30421;BME280;17218;54.070;10.012;2023-04-08T07:44:59;102456.28;;;7.51;100.00
30421;BME280;17218;54.070;10.012;2023-04-08T07:47:26;102451.28;;;7.56;100.00
30421;BME280;17218;54.070;10.012;2023-04-08T07:49:52;102458.03;;;7.26;100.00
30421;BME280;17218;54.070;10.012;2023-04-08T07:52:19;102458.13;;;7.29;100.00
30421;BME280;17218;54.070;10.012;2023-04-08T07:54:45;102455.72;;;7.34;100.00
30421;BME280;17218;54.070;10.012;2023-04-08T07:57:13;102462.06;;;7.44;100.00
30421;BME280;17218;54.070;10.012;2023-04-08T07:59:40;102460.63;;;7.52;100.00
30421;BME280;17218;54.070;10.012;2023-04-08T08:02:06;102467.06;;;7.39;100.00
30421;BME280;17218;54.070;10.012;2023-04-08T08:04:33;102459.66;;;7.48;100.00
30421;BME280;17218;54.070;10.012;2023-04-08T08:07:00;102469.91;;;7.47;100.00
30421;BME280;17218;54.070;10.012;2023-04-08T08:09:26;102475.25;;;7.53;100.00
30421;BME280;17218;54.070;10.012;2023-04-08T08:11:52;102480.84;;;7.39;100.00
30421;BME280;17218;54.070;10.012;2023-04-08T08:14:20;102474.22;;;7.48;100.00
30421;BME280;17218;54.070;10.012;2023-04-08T08:16:47;102484.59;;;7.49;100.00
30421;BME280;17218;54.070;10.012;2023-04-08T08:19:13;102479.44;;;7.49;100.00
30421;BME280;17218;54.070;10.012;2023-04-08T08:21:40;102469.53;;;7.62;100.00
30421;BME280;17218;54.070;10.012;2023-04-08T08:24:06;102477.03;;;7.54;100.00
30421;BME280;17218;54.070;10.012;2023-04-08T08:26:34;102479.91;;;7.63;100.00
30421;BME280;17218;54.070;10.012;2023-04-08T08:29:01;102472.63;;;7.78;100.00
30421;BME280;17218;54.070;10.012;2023-04-08T08:34:53;102471.34;;;7.92;100.00
30421;BME280;17218;54.070;10.012;2023-04-08T08:37:20;102474.09;;;7.97;100.00
30421;BME280;17218;54.070;10.012;2023-04-08T08:39:46;102473.69;;;8.12;100.00
30421;BME280;17218;54.070;10.012;2023-04-08T08:42:20;102482.63;;;8.23;100.00
30421;BME280;17218;54.070;10.012;2023-04-08T08:44:47;102479.00;;;8.46;100.00
30421;BME280;17218;54.070;10.012;2023-04-08T08:47:14;102483.84;;;8.64;100.00
30421;BME280;17218;54.070;10.012;2023-04-08T08:49:41;102482.38;;;8.73;100.00
30421;BME280;17218;54.070;10.012;2023-04-08T08:52:09;102478.69;;;8.64;100.00
30421;BME280;17218;54.070;10.012;2023-04-08T08:54:35;102484.28;;;8.51;100.00
30421;BME280;17218;54.070;10.012;2023-04-08T08:57:02;102485.41;;;8.57;100.00
30421;BME280;17218;54.070;10.012;2023-04-08T08:59:29;102481.03;;;8.86;100.00
30421;BME280;17218;54.070;10.012;2023-04-08T09:01:55;102479.66;;;8.99;100.00
30421;BME280;17218;54.070;10.012;2023-04-08T09:04:22;102480.22;;;9.21;100.00
30421;BME280;17218;54.070;10.012;2023-04-08T09:06:50;102484.63;;;9.25;100.00
30421;BME280;17218;54.070;10.012;2023-04-08T09:09:47;102492.63;;;9.34;100.00
30421;BME280;17218;54.070;10.012;2023-04-08T09:12:13;102495.19;;;9.66;100.00
30421;BME280;17218;54.070;10.012;2023-04-08T09:14:40;102493.91;;;9.86;100.00
30421;BME280;17218;54.070;10.012;2023-04-08T09:17:06;102498.03;;;9.77;100.00
30421;BME280;17218;54.070;10.012;2023-04-08T09:19:33;102494.59;;;9.78;100.00
30421;BME280;17218;54.070;10.012;2023-04-08T09:22:06;102494.91;;;9.91;100.00
30421;BME280;17218;54.070;10.012;2023-04-08T09:24:33;102493.72;;;9.78;100.00
30421;BME280;17218;54.070;10.012;2023-04-08T09:27:02;102495.97;;;9.64;100.00
30421;BME280;17218;54.070;10.012;2023-04-08T09:29:29;102491.84;;;9.71;100.00
30421;BME280;17218;54.070;10.012;2023-04-08T09:31:56;102498.91;;;9.78;100.00
30421;BME280;17218;54.070;10.012;2023-04-08T09:34:24;102494.09;;;9.94;100.00
30421;BME280;17218;54.070;10.012;2023-04-08T09:36:52;102489.97;;;10.02;100.00
30421;BME280;17218;54.070;10.012;2023-04-08T09:39:19;102499.66;;;10.11;100.00
30421;BME280;17218;54.070;10.012;2023-04-08T09:41:47;102496.22;;;10.12;100.00
30421;BME280;17218;54.070;10.012;2023-04-08T09:44:18;102500.69;;;10.19;100.00
30421;BME280;17218;54.070;10.012;2023-04-08T09:46:55;102503.72;;;10.38;100.00
30421;BME280;17218;54.070;10.012;2023-04-08T09:49:25;102510.22;;;10.59;100.00
30421;BME280;17218;54.070;10.012;2023-04-08T09:51:56;102510.88;;;10.48;100.00
30421;BME280;17218;54.070;10.012;2023-04-08T09:54:31;102502.84;;;10.00;100.00
30421;BME280;17218;54.070;10.012;2023-04-08T09:57:04;102507.75;;;9.88;100.00
30421;BME280;17218;54.070;10.012;2023-04-08T09:59:37;102507.53;;;9.78;100.00
30421;BME280;17218;54.070;10.012;2023-04-08T10:02:08;102508.44;;;9.81;100.00
30421;BME280;17218;54.070;10.012;2023-04-08T10:04:39;102511.13;;;9.84;100.00
30421;BME280;17218;54.070;10.012;2023-04-08T10:07:07;102509.84;;;10.03;100.00
30421;BME280;17218;54.070;10.012;2023-04-08T10:09:34;102524.63;;;10.07;100.00
30421;BME280;17218;54.070;10.012;2023-04-08T10:12:03;102516.38;;;10.25;100.00
30421;BME280;17218;54.070;10.012;2023-04-08T10:14:30;102517.22;;;10.24;100.00
30421;BME280;17218;54.070;10.012;2023-04-08T10:17:24;102522.81;;;10.43;100.00
30421;BME280;17218;54.070;10.012;2023-04-08T10:19:52;102529.75;;;10.44;100.00
30421;BME280;17218;54.070;10.012;2023-04-08T10:22:45;102518.81;;;10.56;100.00
30421;BME280;17218;54.070;10.012;2023-04-08T10:25:32;102518.22;;;10.70;100.00
30421;BME280;17218;54.070;10.012;2023-04-08T10:27:59;102515.88;;;10.82;100.00
30421;BME280;17218;54.070;10.012;2023-04-08T10:30:39;102514.25;;;10.88;100.00
30421;BME280;17218;54.070;10.012;2023-04-08T10:33:10;102511.03;;;10.98;100.00
30421;BME280;17218;54.070;10.012;2023-04-08T10:35:40;102512.59;;;10.91;100.00
30421;BME280;17218;54.070;10.012;2023-04-08T10:38:08;102506.41;;;10.84;100.00
30421;BME280;17218;54.070;10.012;2023-04-08T10:40:36;102506.56;;;10.91;100.00
30421;BME280;17218;54.070;10.012;2023-04-08T10:43:05;102512.56;;;10.90;100.00
30421;BME280;17218;54.070;10.012;2023-04-08T10:45:32;102497.16;;;10.96;100.00
30421;BME280;17218;54.070;10.012;2023-04-08T10:48:12;102508.34;;;10.52;100.00
30421;BME280;17218;54.070;10.012;2023-04-08T10:50:39;102517.88;;;10.53;100.00
30421;BME280;17218;54.070;10.012;2023-04-08T10:53:06;102506.94;;;10.68;100.00
30421;BME280;17218;54.070;10.012;2023-04-08T10:55:32;102514.00;;;10.73;100.00
30421;BME280;17218;54.070;10.012;2023-04-08T10:58:04;102512.13;;;10.68;100.00
30421;BME280;17218;54.070;10.012;2023-04-08T11:00:33;102507.88;;;10.70;100.00
30421;BME280;17218;54.070;10.012;2023-04-08T11:06:09;102513.25;;;10.79;100.00
30421;BME280;17218;54.070;10.012;2023-04-08T11:08:36;102516.00;;;10.87;100.00
30421;BME280;17218;54.070;10.012;2023-04-08T11:11:03;102503.53;;;10.69;100.00
30421;BME280;17218;54.070;10.012;2023-04-08T11:13:33;102510.44;;;10.70;100.00
30421;BME280;17218;54.070;10.012;2023-04-08T11:16:01;102509.00;;;10.84;100.00
30421;BME280;17218;54.070;10.012;2023-04-08T11:18:29;102513.31;;;10.84;100.00
30421;BME280;17218;54.070;10.012;2023-04-08T11:20:56;102505.91;;;11.03;100.00
30421;BME280;17218;54.070;10.012;2023-04-08T11:23:25;102512.31;;;11.20;100.00
30421;BME280;17218;54.070;10.012;2023-04-08T11:25:51;102512.72;;;11.44;100.00
30421;BME280;17218;54.070;10.012;2023-04-08T11:28:18;102513.69;;;11.52;100.00
30421;BME280;17218;54.070;10.012;2023-04-08T11:30:45;102504.13;;;11.48;100.00
30421;BME280;17218;54.070;10.012;2023-04-08T11:33:13;102510.31;;;11.55;100.00
30421;BME280;17218;54.070;10.012;2023-04-08T11:35:41;102509.56;;;11.62;100.00
30421;BME280;17218;54.070;10.012;2023-04-08T11:38:09;102507.69;;;11.53;100.00
30421;BME280;17218;54.070;10.012;2023-04-08T11:40:37;102504.03;;;11.42;100.00
30421;BME280;17218;54.070;10.012;2023-04-08T11:43:08;102515.34;;;11.47;100.00
30421;BME280;17218;54.070;10.012;2023-04-08T11:45:37;102512.75;;;11.47;100.00
30421;BME280;17218;54.070;10.012;2023-04-08T11:48:08;102510.25;;;11.52;100.00
30421;BME280;17218;54.070;10.012;2023-04-08T11:50:35;102508.69;;;11.63;100.00
30421;BME280;17218;54.070;10.012;2023-04-08T11:53:01;102509.88;;;11.81;100.00
30421;BME280;17218;54.070;10.012;2023-04-08T11:55:30;102511.69;;;11.87;100.00
30421;BME280;17218;54.070;10.012;2023-04-08T11:58:02;102508.31;;;11.92;100.00
30421;BME280;17218;54.070;10.012;2023-04-08T12:00:29;102510.78;;;11.85;100.00
30421;BME280;17218;54.070;10.012;2023-04-08T12:02:57;102506.31;;;11.76;100.00
30421;BME280;17218;54.070;10.012;2023-04-08T12:05:23;102521.16;;;11.85;100.00
30421;BME280;17218;54.070;10.012;2023-04-08T12:07:50;102500.63;;;12.00;100.00
30421;BME280;17218;54.070;10.012;2023-04-08T12:10:16;102509.25;;;11.96;100.00
30421;BME280;17218;54.070;10.012;2023-04-08T12:12:43;102511.72;;;11.90;100.00
30421;BME280;17218;54.070;10.012;2023-04-08T12:15:11;102515.19;;;11.89;100.00
30421;BME280;17218;54.070;10.012;2023-04-08T12:17:37;102510.00;;;11.90;100.00
30421;BME280;17218;54.070;10.012;2023-04-08T12:20:05;102516.09;;;11.92;100.00
30421;BME280;17218;54.070;10.012;2023-04-08T12:22:31;102521.22;;;11.88;100.00
30421;BME280;17218;54.070;10.012;2023-04-08T12:24:58;102519.47;;;11.87;100.00
30421;BME280;17218;54.070;10.012;2023-04-08T12:27:27;102523.66;;;11.78;100.00
30421;BME280;17218;54.070;10.012;2023-04-08T12:29:53;102522.72;;;11.75;100.00
30421;BME280;17218;54.070;10.012;2023-04-08T12:32:21;102529.75;;;11.80;100.00
30421;BME280;17218;54.070;10.012;2023-04-08T12:34:49;102531.44;;;11.77;100.00
30421;BME280;17218;54.070;10.012;2023-04-08T12:37:15;102533.22;;;11.79;100.00
30421;BME280;17218;54.070;10.012;2023-04-08T12:39:42;102534.97;;;11.82;100.00
30421;BME280;17218;54.070;10.012;2023-04-08T12:42:08;102523.47;;;11.67;100.00
30421;BME280;17218;54.070;10.012;2023-04-08T12:44:35;102529.53;;;11.66;100.00
30421;BME280;17218;54.070;10.012;2023-04-08T12:47:01;102532.97;;;11.67;100.00
30421;BME280;17218;54.070;10.012;2023-04-08T12:49:29;102523.16;;;11.49;100.00
30421;BME280;17218;54.070;10.012;2023-04-08T12:51:56;102524.63;;;11.32;100.00
30421;BME280;17218;54.070;10.012;2023-04-08T12:54:22;102523.09;;;11.44;100.00
30421;BME280;17218;54.070;10.012;2023-04-08T12:56:48;102528.44;;;11.52;100.00
30421;BME280;17218;54.070;10.012;2023-04-08T12:59:15;102523.13;;;11.47;100.00